Time;durP1;ratioP1;P1;durP2;ratioP2;P2;SDS_P1;SDS_P2;PMS_P1;PMS_P2;Temp;Humidity;BMP_temperature;BMP_pressure;BME280_temperature;BME280_humidity;BME280_pressure;Samples;Min_cycle;Max_cycle;Signal;HPM_P1;HPM_P2
2023/01/17 00:00:33;;;;;;;8.63;0.77;;;;;;;0.93;100.00;98545.41;5052470;28;20044;-75
2023/01/17 00:02:59;;;;;;;8.23;1.10;;;;;;;0.91;100.00;98543.88;5053676;28;20032;-75
2023/01/17 00:10:57;;;;;;;11.38;0.90;;;;;;;0.84;100.00;98543.59;5053888;28;20040;-74
2023/01/17 00:13:25;;;;;;;7.20;1.15;;;;;;;0.83;100.00;98536.69;5053198;28;20090;-75
2023/01/17 00:15:51;;;;;;;2.67;0.63;;;;;;;0.76;100.00;98538.19;5053763;28;20446;-76
2023/01/17 00:18:17;;;;;;;3.35;0.63;;;;;;;0.65;100.00;98541.72;5053575;28;20029;-75
2023/01/17 00:26:17;;;;;;;5.50;0.73;;;;;;;0.45;100.00;98546.03;5053576;28;20047;-75
2023/01/17 01:35:43;;;;;;;7.75;1.17;;;;;;;-0.31;100.00;98622.91;5052699;28;20060;-74
2023/01/17 01:38:08;;;;;;;10.68;1.40;;;;;;;-0.24;100.00;98628.44;5052017;28;20040;-75
2023/01/17 01:40:33;;;;;;;3.38;0.93;;;;;;;-0.23;100.00;98623.09;5052307;28;20037;-75
2023/01/17 01:43:04;;;;;;;7.53;1.23;;;;;;;-0.09;100.00;98623.75;5052188;28;20457;-75
2023/01/17 01:45:31;;;;;;;8.75;1.35;;;;;;;0.09;100.00;98632.72;5052927;28;20025;-74
2023/01/17 01:48:14;;;;;;;8.48;0.93;;;;;;;0.30;100.00;98626.66;5052895;28;20104;-75
2023/01/17 01:50:40;;;;;;;13.00;0.98;;;;;;;0.45;100.00;98629.78;5054060;28;20032;-74
2023/01/17 01:53:06;;;;;;;5.40;1.08;;;;;;;0.52;100.00;98637.00;5055506;28;20121;-74
2023/01/17 01:55:38;;;;;;;10.23;1.23;;;;;;;0.54;100.00;98644.72;5056095;28;20087;-76
2023/01/17 01:58:07;;;;;;;;;;;;;;;0.52;100.00;98642.25;5056226;28;20029;-74
2023/01/17 02:00:36;;;;;;;5.72;0.85;;;;;;;0.56;100.00;98644.59;5056118;28;19916;-75
2023/01/17 02:03:10;;;;;;;14.80;0.98;;;;;;;0.61;100.00;98645.88;5055459;28;20029;-75
2023/01/17 02:05:36;;;;;;;12.68;1.00;;;;;;;0.66;100.00;98646.31;5055360;28;20496;-75
2023/01/17 02:08:08;;;;;;;4.60;1.00;;;;;;;0.80;100.00;98645.13;5056216;28;20128;-74
2023/01/17 02:10:36;;;;;;;12.00;1.85;;;;;;;0.90;100.00;98658.28;5055602;28;20047;-74
2023/01/17 02:13:02;;;;;;;17.05;1.30;;;;;;;0.91;100.00;98653.84;5055456;28;20029;-74
2023/01/17 02:15:36;;;;;;;13.10;1.50;;;;;;;0.95;100.00;98658.69;5055636;28;20143;-74
2023/01/17 02:18:19;;;;;;;8.20;0.95;;;;;;;0.91;100.00;98675.66;5055787;28;20147;-75
2023/01/17 02:21:04;;;;;;;35.33;1.80;;;;;;;0.99;100.00;98683.66;5055588;28;20048;-74
2023/01/17 02:23:35;;;;;;;5.22;0.80;;;;;;;0.93;100.00;98686.81;5055315;28;20163;-74
2023/01/17 02:26:30;;;;;;;6.10;0.80;;;;;;;0.81;100.00;98685.25;5055394;28;20112;-75
2023/01/17 02:29:29;;;;;;;5.43;0.82;;;;;;;0.70;100.00;98691.34;5055471;28;20444;-74
2023/01/17 02:32:03;;;;;;;4.00;0.80;;;;;;;0.72;100.00;98681.59;5055067;28;20044;-74
2023/01/17 02:34:48;;;;;;;6.53;0.80;;;;;;;0.68;100.00;98681.03;5055686;28;20029;-74
2023/01/17 02:37:22;;;;;;;6.00;0.55;;;;;;;0.60;100.00;98688.69;5055372;28;20072;-74
2023/01/17 02:39:55;;;;;;;3.55;0.90;;;;;;;0.51;100.00;98676.38;5055461;28;20041;-74
2023/01/17 02:42:26;;;;;;;7.32;1.00;;;;;;;0.44;100.00;98672.63;5055524;28;20083;-74
2023/01/17 02:44:52;;;;;;;;;;;;;;;0.38;100.00;98670.50;5054948;28;20021;-74
2023/01/17 02:47:26;;;;;;;5.32;0.95;;;;;;;0.35;100.00;98671.59;5054776;28;19952;-74
2023/01/17 02:49:56;;;;;;;11.27;1.58;;;;;;;0.30;100.00;98673.75;5055329;28;20029;-74
2023/01/17 02:52:46;;;;;;;7.18;0.80;;;;;;;0.28;100.00;98668.63;5054967;28;20088;-73
2023/01/17 02:55:22;;;;;;;5.72;0.98;;;;;;;0.35;100.00;98671.59;5054728;28;20029;-76
2023/01/17 02:58:02;;;;;;;19.63;1.50;;;;;;;0.50;100.00;98672.09;5054995;28;20025;-72
2023/01/17 03:00:43;;;;;;;7.78;1.58;;;;;;;0.55;100.00;98663.88;5054825;28;20342;-73
2023/01/17 03:03:08;;;;;;;7.03;1.10;;;;;;;0.79;100.00;98674.06;5053940;28;20032;-73
2023/01/17 03:05:48;;;;;;;8.68;1.10;;;;;;;0.88;100.00;98666.25;5054026;28;20045;-75
2023/01/17 03:08:14;;;;;;;11.18;1.30;;;;;;;0.98;100.00;98671.53;5054971;28;20112;-76
2023/01/17 03:10:40;;;;;;;10.35;1.23;;;;;;;1.05;100.00;98675.28;5054920;28;20037;-73
2023/01/17 03:13:06;;;;;;;5.18;1.02;;;;;;;1.12;100.00;98675.59;5054803;28;20033;-73
2023/01/17 03:15:31;;;;;;;10.77;1.00;;;;;;;1.17;100.00;98670.78;5054398;28;20059;-73
2023/01/17 03:18:02;;;;;;;5.47;1.13;;;;;;;1.15;100.00;98675.34;5054059;28;20040;-73
2023/01/17 03:20:28;;;;;;;8.32;0.90;;;;;;;1.17;100.00;98675.22;5054687;28;20104;-74
2023/01/17 03:22:53;;;;;;;9.25;1.40;;;;;;;1.23;100.00;98674.69;5054757;28;20039;-74
2023/01/17 03:25:18;;;;;;;13.10;1.35;;;;;;;1.30;100.00;98677.59;5052754;28;20366;-74
2023/01/17 03:27:44;;;;;;;5.85;1.23;;;;;;;1.29;100.00;98689.03;5053786;28;20059;-73
2023/01/17 03:30:10;;;;;;;3.60;0.68;;;;;;;1.36;100.00;98691.00;5054236;28;20059;-74
2023/01/17 03:32:35;;;;;;;7.32;1.08;;;;;;;1.37;100.00;98683.94;5053737;28;20037;-73
2023/01/17 03:35:01;;;;;;;6.07;1.05;;;;;;;1.28;100.00;98682.94;5054409;28;20402;-73
2023/01/17 03:37:26;;;;;;;12.35;1.05;;;;;;;1.26;100.00;98684.88;5053943;28;20037;-73
2023/01/17 03:39:51;;;;;;;9.35;1.10;;;;;;;1.21;100.00;98685.28;5053819;28;20090;-74
2023/01/17 03:42:17;;;;;;;5.53;1.00;;;;;;;1.16;100.00;98691.88;5053877;28;20029;-74
2023/01/17 03:44:42;;;;;;;6.63;1.40;;;;;;;1.14;100.00;98683.34;5053684;28;20067;-73
2023/01/17 03:47:10;;;;;;;6.75;0.90;;;;;;;1.14;100.00;98697.25;5053713;28;20382;-73
2023/01/17 03:49:37;;;;;;;7.07;1.13;;;;;;;1.07;100.00;98690.88;5053623;28;20033;-74
2023/01/17 03:52:03;;;;;;;5.88;0.88;;;;;;;1.00;100.00;98694.97;5053621;28;20045;-74
2023/01/17 03:54:28;;;;;;;8.25;1.42;;;;;;;0.98;100.00;98699.53;5053863;28;20037;-74
2023/01/17 03:56:54;;;;;;;5.10;1.33;;;;;;;1.05;100.00;98690.19;5053535;28;20040;-74
2023/01/17 03:59:19;;;;;;;6.07;1.00;;;;;;;1.15;100.00;98698.91;5053495;28;20036;-74
2023/01/17 04:01:44;;;;;;;6.07;1.30;;;;;;;1.17;100.00;98701.41;5053720;28;20029;-74
2023/01/17 04:04:09;;;;;;;4.47;0.90;;;;;;;1.21;100.00;98702.81;5053416;28;20091;-74
2023/01/17 04:06:35;;;;;;;4.72;0.95;;;;;;;1.30;100.00;98701.16;5053541;28;20144;-74
2023/01/17 04:09:00;;;;;;;5.93;1.05;;;;;;;1.33;100.00;98704.38;5053541;28;20036;-74
2023/01/17 04:11:26;;;;;;;9.30;1.40;;;;;;;1.43;100.00;98708.81;5053071;28;20060;-74
2023/01/17 04:13:51;;;;;;;4.40;1.50;;;;;;;1.44;100.00;98706.06;5052325;28;20109;-74
2023/01/17 04:16:17;;;;;;;8.43;1.40;;;;;;;1.41;100.00;98706.31;5052976;28;20025;-74
2023/01/17 04:18:43;;;;;;;9.98;1.08;;;;;;;1.39;100.00;98711.69;5052695;28;20033;-74
2023/01/17 04:21:08;;;;;;;4.53;1.52;;;;;;;1.42;100.00;98710.59;5051913;28;20040;-74
2023/01/17 04:23:34;;;;;;;5.53;1.30;;;;;;;1.45;100.00;98709.50;5035091;28;20055;-74
2023/01/17 04:26:00;;;;;;;5.20;1.35;;;;;;;1.46;100.00;98714.59;5052865;28;20484;-75
2023/01/17 04:28:25;;;;;;;5.95;0.70;;;;;;;1.47;100.00;98718.88;5053361;28;20538;-75
2023/01/17 04:30:50;;;;;;;4.70;1.02;;;;;;;1.46;100.00;98711.16;5053004;28;20373;-74
2023/01/17 04:33:17;;;;;;;6.82;1.05;;;;;;;1.45;100.00;98712.13;5052117;28;20382;-74
2023/01/17 04:35:42;;;;;;;5.68;1.15;;;;;;;1.46;100.00;98717.22;5053266;28;20393;-74
2023/01/17 04:38:08;;;;;;;3.15;0.77;;;;;;;1.46;100.00;98714.59;5052580;28;20032;-74
2023/01/17 04:40:33;;;;;;;3.60;1.20;;;;;;;1.41;100.00;98722.03;5052747;28;20024;-74
2023/01/17 04:42:58;;;;;;;4.95;1.33;;;;;;;1.38;100.00;98722.31;5052800;28;20041;-74
2023/01/17 04:45:24;;;;;;;4.78;1.33;;;;;;;1.34;100.00;98721.72;5052673;28;20462;-74
2023/01/17 04:47:49;;;;;;;10.90;1.20;;;;;;;1.33;100.00;98725.31;5052432;28;20031;-74
2023/01/17 04:50:15;;;;;;;4.82;1.95;;;;;;;1.27;100.00;98714.53;5052711;28;20029;-74
2023/01/17 04:52:41;;;;;;;8.38;1.17;;;;;;;1.22;100.00;98710.53;5052517;28;20516;-75
2023/01/17 04:55:07;;;;;;;11.77;1.63;;;;;;;1.17;100.00;98712.69;5052861;28;20358;-73
2023/01/17 04:57:32;;;;;;;3.95;0.93;;;;;;;1.18;100.00;98714.38;5052844;28;20029;-73
2023/01/17 04:59:58;;;;;;;2.38;0.82;;;;;;;1.13;100.00;98716.53;5052511;28;20036;-75
2023/01/17 05:02:23;;;;;;;9.60;1.30;;;;;;;1.07;100.00;98722.31;5052796;28;20034;-74
2023/01/17 05:04:49;;;;;;;2.03;0.75;;;;;;;1.04;100.00;98723.38;5052736;28;20028;-74
2023/01/17 05:07:14;;;;;;;4.60;1.20;;;;;;;1.03;100.00;98724.38;5053336;28;20045;-74
2023/01/17 05:09:39;;;;;;;12.63;1.65;;;;;;;1.11;100.00;98722.88;5052395;28;20083;-73
2023/01/17 05:12:05;;;;;;;5.10;1.00;;;;;;;1.14;100.00;98738.34;5052507;28;20485;-73
2023/01/17 05:14:33;;;;;;;7.03;0.98;;;;;;;1.15;100.00;98734.75;5050926;28;20033;-73
2023/01/17 05:16:58;;;;;;;7.90;1.10;;;;;;;1.16;100.00;98739.03;5052493;28;20032;-73
2023/01/17 05:19:25;;;;;;;3.85;1.05;;;;;;;1.17;100.00;98738.91;5052548;28;20354;-76
2023/01/17 05:21:50;;;;;;;7.20;0.98;;;;;;;1.21;100.00;98734.25;5052514;28;20045;-74
2023/01/17 05:24:16;;;;;;;8.32;1.00;;;;;;;1.20;100.00;98738.63;5052075;28;20033;-75
2023/01/17 05:26:42;;;;;;;7.93;1.35;;;;;;;1.22;100.00;98749.84;5056225;28;20450;-74
2023/01/17 05:29:08;;;;;;;5.75;1.10;;;;;;;1.22;100.00;98746.38;5056584;28;20021;-74
2023/01/17 05:31:34;;;;;;;6.82;1.02;;;;;;;1.20;100.00;98751.72;5056130;28;20095;-77
2023/01/17 05:33:59;;;;;;;8.57;1.85;;;;;;;1.18;100.00;98755.44;5056099;28;20029;-75
2023/01/17 05:36:25;;;;;;;10.25;1.35;;;;;;;1.15;100.00;98751.31;5056639;28;20076;-75
2023/01/17 05:38:50;;;;;;;3.65;0.88;;;;;;;1.10;100.00;98750.03;5055472;28;20167;-75
2023/01/17 05:41:15;;;;;;;6.53;1.25;;;;;;;0.98;100.00;98763.19;5056330;28;20378;-75
2023/01/17 05:43:41;;;;;;;5.10;1.17;;;;;;;0.88;100.00;98762.28;5055930;28;20060;-75
2023/01/17 05:46:06;;;;;;;6.00;1.60;;;;;;;0.82;100.00;98770.66;5055716;28;20029;-75
2023/01/17 05:48:31;;;;;;;3.55;1.50;;;;;;;0.80;100.00;98757.69;5055749;28;20039;-74
2023/01/17 05:50:57;;;;;;;5.25;1.25;;;;;;;0.82;100.00;98768.03;5055906;28;20040;-73
2023/01/17 05:53:22;;;;;;;5.65;1.05;;;;;;;0.75;100.00;98764.28;5055907;28;20036;-74
2023/01/17 05:55:48;;;;;;;3.67;0.95;;;;;;;0.62;100.00;98761.84;5054455;28;20033;-74
2023/01/17 05:58:19;;;;;;;6.82;1.67;;;;;;;0.55;100.00;98777.22;5056116;28;20098;-74
2023/01/17 06:00:45;;;;;;;4.60;1.50;;;;;;;0.38;100.00;98773.38;5055734;28;20496;-73
2023/01/17 06:03:11;;;;;;;7.47;1.05;;;;;;;0.26;100.00;98774.38;5054652;28;20286;-74
2023/01/17 06:05:37;;;;;;;6.25;1.58;;;;;;;0.14;100.00;98776.19;5055405;28;20452;-74
2023/01/17 06:08:02;;;;;;;10.10;1.25;;;;;;;0.06;100.00;98776.81;5055579;28;20033;-74
2023/01/17 06:10:28;;;;;;;2.17;0.93;;;;;;;0.06;100.00;98778.56;5055649;28;20553;-73
2023/01/17 06:13:12;;;;;;;2.92;0.80;;;;;;;0.01;100.00;98775.50;5055703;28;20365;-74
2023/01/17 06:15:38;;;;;;;3.53;1.23;;;;;;;-0.08;100.00;98777.88;5056028;28;20025;-74
2023/01/17 06:18:12;;;;;;;4.18;1.13;;;;;;;-0.16;100.00;98782.91;5055342;28;20036;-74
2023/01/17 06:20:38;;;;;;;8.57;1.08;;;;;;;-0.26;100.00;98782.78;5055667;28;20059;-73
2023/01/17 06:23:06;;;;;;;5.68;1.38;;;;;;;-0.38;100.00;98784.56;5055301;28;20123;-74
2023/01/17 06:25:44;;;;;;;6.40;1.02;;;;;;;-0.53;100.00;98780.53;5055322;28;20040;-74
2023/01/17 06:28:12;;;;;;;8.10;0.90;;;;;;;-0.60;100.00;98780.19;5055240;28;20540;-74
2023/01/17 06:30:37;;;;;;;7.07;0.95;;;;;;;-0.67;100.00;98786.00;5054975;28;20036;-73
2023/01/17 06:33:03;;;;;;;4.90;1.08;;;;;;;-0.78;100.00;98784.22;5055040;28;20025;-74
2023/01/17 06:35:29;;;;;;;6.72;1.38;;;;;;;-0.88;100.00;98786.69;5054940;28;20453;-74
2023/01/17 06:37:56;;;;;;;5.20;1.00;;;;;;;-0.95;100.00;98788.09;5053273;28;20491;-74
2023/01/17 06:40:26;;;;;;;3.78;1.38;;;;;;;-1.04;100.00;98786.19;5054889;28;20057;-75
2023/01/17 06:42:52;;;;;;;3.05;0.88;;;;;;;-1.14;100.00;98791.25;5055172;28;20082;-75
2023/01/17 06:45:18;;;;;;;8.80;1.45;;;;;;;-1.21;100.00;98788.25;5054959;28;20029;-74
2023/01/17 06:47:44;;;;;;;3.50;1.10;;;;;;;-1.26;100.00;98790.41;5054568;28;20028;-73
2023/01/17 06:50:12;;;;;;;4.15;1.20;;;;;;;-1.30;100.00;98789.81;5054672;28;20044;-73
2023/01/17 06:52:38;;;;;;;2.40;1.00;;;;;;;-1.34;100.00;98787.53;5054318;28;20082;-73
2023/01/17 06:55:04;;;;;;;3.60;1.20;;;;;;;-1.39;100.00;98793.06;5054361;28;20124;-73
2023/01/17 06:57:29;;;;;;;1.45;0.90;;;;;;;-1.46;100.00;98792.69;5054954;28;20350;-77
2023/01/17 06:59:54;;;;;;;4.55;1.17;;;;;;;-1.49;100.00;98797.31;5052717;28;20033;-75
2023/01/17 07:02:20;;;;;;;3.83;1.10;;;;;;;-1.60;100.00;98796.31;5054469;28;20118;-74
2023/01/17 07:04:45;;;;;;;3.17;1.05;;;;;;;-1.70;100.00;98797.09;5054092;28;20535;-74
2023/01/17 07:07:10;;;;;;;3.88;1.02;;;;;;;-1.84;100.00;98790.25;5055056;28;20049;-77
2023/01/17 07:09:36;;;;;;;2.58;1.15;;;;;;;-1.99;100.00;98794.81;5054577;28;20025;-73
2023/01/17 07:12:01;;;;;;;3.83;1.40;;;;;;;-2.10;100.00;98802.56;5052514;28;20025;-76
2023/01/17 07:14:27;;;;;;;14.05;2.40;;;;;;;-2.24;100.00;98801.75;5058408;28;20037;-77
2023/01/17 07:16:54;;;;;;;3.17;1.20;;;;;;;-2.36;100.00;98800.84;5053936;28;20355;-76
2023/01/17 07:19:19;;;;;;;4.15;1.55;;;;;;;-2.47;100.00;98803.34;5054224;28;20036;-75
2023/01/17 07:21:45;;;;;;;7.50;2.22;;;;;;;-2.57;100.00;98795.31;5054189;28;20036;-76
2023/01/17 07:24:10;;;;;;;5.65;1.50;;;;;;;-2.64;100.00;98801.06;5056716;28;20064;-75
2023/01/17 07:26:39;;;;;;;4.07;1.73;;;;;;;-2.63;100.00;98800.13;5056987;28;20083;-75
2023/01/17 07:29:05;;;;;;;3.25;1.20;;;;;;;-2.64;100.00;98799.31;5059898;28;20040;-75
2023/01/17 07:31:34;;;;;;;2.65;1.63;;;;;;;-2.68;100.00;98803.88;5058459;28;20029;-75
2023/01/17 07:33:59;;;;;;;4.55;1.73;;;;;;;-2.74;100.00;98799.09;5054189;28;20025;-75
2023/01/17 07:36:25;;;;;;;7.55;1.50;;;;;;;-2.79;100.00;98809.00;5055108;28;20037;-76
2023/01/17 07:38:51;;;;;;;4.95;1.40;;;;;;;-2.86;100.00;98807.75;5063082;28;20043;-76
2023/01/17 07:41:16;;;;;;;3.70;1.52;;;;;;;-2.94;100.00;98802.22;5065038;28;20029;-76
2023/01/17 07:43:41;;;;;;;4.68;1.73;;;;;;;-3.00;100.00;98803.47;5056204;28;20045;-76
2023/01/17 07:46:07;;;;;;;2.47;1.80;;;;;;;-3.05;100.00;98806.34;5054808;28;20325;-76
2023/01/17 07:48:33;;;;;;;6.72;1.77;;;;;;;-3.07;100.00;98807.41;5052294;28;20132;-76
2023/01/17 07:50:58;;;;;;;2.25;1.38;;;;;;;-3.07;100.00;98812.63;5054378;28;20039;-76
2023/01/17 07:53:29;;;;;;;4.55;1.70;;;;;;;-3.09;100.00;98810.13;5053805;28;20033;-76
2023/01/17 07:55:59;;;;;;;1.70;1.38;;;;;;;-3.08;100.00;98803.16;5053662;28;20036;-76
2023/01/17 07:58:24;;;;;;;2.58;1.52;;;;;;;-3.09;100.00;98804.94;5053633;28;20105;-76
2023/01/17 08:00:50;;;;;;;5.03;1.83;;;;;;;-3.10;100.00;98805.03;5054129;28;20083;-77
2023/01/17 08:03:16;;;;;;;3.50;1.33;;;;;;;-3.11;100.00;98814.59;5053920;28;20098;-76
2023/01/17 08:05:51;;;;;;;4.05;1.50;;;;;;;-3.11;100.00;98809.38;5053544;28;20045;-75
2023/01/17 08:08:16;;;;;;;3.67;1.27;;;;;;;-3.11;100.00;98816.34;5053698;28;20412;-75
2023/01/17 08:10:41;;;;;;;5.97;1.75;;;;;;;-3.13;100.00;98813.03;5053561;28;20052;-75
2023/01/17 08:13:07;;;;;;;3.10;1.63;;;;;;;-3.14;100.00;98812.19;5053506;28;20033;-75
2023/01/17 08:15:32;;;;;;;3.15;1.52;;;;;;;-3.14;100.00;98813.97;5052915;28;20109;-75
2023/01/17 08:17:57;;;;;;;5.28;1.98;;;;;;;-3.12;100.00;98817.28;5053563;28;20120;-74
2023/01/17 08:20:24;;;;;;;5.32;1.65;;;;;;;-3.11;100.00;98816.34;5053902;28;20167;-78
2023/01/17 08:22:54;;;;;;;3.80;1.50;;;;;;;-3.11;100.00;98811.16;5053493;28;20047;-75
2023/01/17 08:25:20;;;;;;;4.38;1.42;;;;;;;-3.09;100.00;98814.47;5053139;28;20611;-76
2023/01/17 08:27:45;;;;;;;6.03;1.67;;;;;;;-3.06;100.00;98820.31;5052902;28;20032;-75
2023/01/17 08:30:11;;;;;;;4.25;1.42;;;;;;;-3.02;100.00;98815.75;5053945;28;20033;-75
2023/01/17 08:32:39;;;;;;;3.05;1.42;;;;;;;-2.98;100.00;98817.22;5053237;28;20130;-76
2023/01/17 08:35:05;;;;;;;3.17;1.48;;;;;;;-2.88;100.00;98817.41;5053290;28;20040;-75
2023/01/17 08:37:31;;;;;;;3.75;1.58;;;;;;;-2.80;100.00;98816.91;5052263;28;20124;-75
2023/01/17 08:39:56;;;;;;;5.03;1.80;;;;;;;-2.70;100.00;98812.75;5053211;28;20560;-77
2023/01/17 08:42:22;;;;;;;4.15;1.65;;;;;;;-2.57;100.00;98815.34;5052120;28;20037;-75
2023/01/17 08:44:47;;;;;;;5.30;1.90;;;;;;;-2.41;100.00;98815.13;5052518;28;20116;-76
2023/01/17 08:47:12;;;;;;;7.93;2.22;;;;;;;-2.24;100.00;98814.78;5053039;28;20033;-76
2023/01/17 08:49:38;;;;;;;2.78;1.63;;;;;;;-2.09;100.00;98819.84;5052863;28;20044;-76
2023/01/17 08:52:04;;;;;;;4.75;2.03;;;;;;;-1.96;100.00;98823.25;5052910;28;20025;-76
2023/01/17 08:54:29;;;;;;;5.03;1.70;;;;;;;-1.85;100.00;98822.47;5053849;28;20037;-77
2023/01/17 08:56:55;;;;;;;3.30;1.50;;;;;;;-1.73;100.00;98813.81;5054049;28;20403;-77
2023/01/17 08:59:20;;;;;;;4.25;1.30;;;;;;;-1.60;100.00;98822.41;5054922;28;20033;-77
2023/01/17 09:01:46;;;;;;;10.00;1.67;;;;;;;-1.54;100.00;98825.50;5061094;28;20028;-77
2023/01/17 09:04:12;;;;;;;5.28;1.42;;;;;;;-1.49;100.00;98821.63;5059935;28;20489;-75
2023/01/17 09:06:44;;;;;;;4.90;1.48;;;;;;;-1.46;100.00;98833.63;5058688;28;20052;-74
2023/01/17 09:09:10;;;;;;;3.72;1.52;;;;;;;-1.44;100.00;98837.75;5060666;28;20064;-78
2023/01/17 09:11:36;;;;;;;3.15;1.40;;;;;;;-1.42;100.00;98830.69;5061699;28;20037;-75
2023/01/17 09:14:02;;;;;;;1.88;1.30;;;;;;;-1.38;100.00;98835.66;5061359;28;20029;-76
2023/01/17 09:16:28;;;;;;;4.82;1.38;;;;;;;-1.33;100.00;98833.53;5061885;28;20124;-75
2023/01/17 09:18:54;;;;;;;3.03;1.05;;;;;;;-1.29;100.00;98833.19;5061957;28;20032;-77
2023/01/17 09:21:20;;;;;;;1.52;1.38;;;;;;;-1.23;100.00;98833.72;5061987;28;20086;-78
2023/01/17 09:23:45;;;;;;;7.32;1.42;;;;;;;-1.17;100.00;98841.09;5059800;28;20042;-78
2023/01/17 09:26:21;;;;;;;10.02;1.40;;;;;;;-1.10;100.00;98834.47;5060665;28;20419;-77
2023/01/17 09:28:47;;;;;;;5.15;1.60;;;;;;;-0.98;100.00;98840.56;5059846;28;20081;-76
2023/01/17 09:31:13;;;;;;;1.85;1.20;;;;;;;-0.88;100.00;98844.16;5059442;28;20029;-78
2023/01/17 09:33:41;;;;;;;1.70;1.20;;;;;;;-0.77;100.00;98848.56;5058472;28;20488;-76
2023/01/17 09:36:08;;;;;;;3.90;1.45;;;;;;;-0.66;100.00;98858.19;5058981;28;20029;-78
2023/01/17 09:38:33;;;;;;;9.63;1.50;;;;;;;-0.60;100.00;98855.97;5059566;28;20029;-78
2023/01/17 09:41:01;;;;;;;6.90;1.50;;;;;;;-0.54;100.00;98852.03;5060795;28;20036;-76
2023/01/17 09:43:40;;;;;;;2.95;1.60;;;;;;;-0.52;100.00;98852.75;5061199;28;20044;-76
2023/01/17 09:46:21;;;;;;;1.85;1.20;;;;;;;-0.47;100.00;98855.84;5060656;28;20059;-78
2023/01/17 09:48:55;;;;;;;6.35;2.17;;;;;;;-0.43;100.00;98859.88;5061547;28;20040;-76
2023/01/17 09:51:23;;;;;;;4.47;2.00;;;;;;;-0.37;100.00;98869.88;5060405;28;20021;-78
2023/01/17 09:53:50;;;;;;;4.32;1.58;;;;;;;-0.23;100.00;98871.41;5060272;28;20087;-76
2023/01/17 09:56:33;;;;;;;2.58;1.40;;;;;;;-0.03;100.00;98869.03;5058128;28;20036;-74
2023/01/17 09:59:32;;;;;;;7.10;1.85;;;;;;;0.19;100.00;98876.03;5060462;28;20028;-73
2023/01/17 10:02:03;;;;;;;4.13;1.90;;;;;;;0.36;100.00;98872.09;5060000;28;20024;-75
2023/01/17 10:05:13;;;;;;;5.03;1.80;;;;;;;0.48;100.00;98873.72;5059764;28;20028;-76
2023/01/17 10:07:57;;;;;;;3.70;1.70;;;;;;;0.62;100.00;98877.03;5059843;28;20041;-78
2023/01/17 10:10:34;;;;;;;2.63;1.33;;;;;;;0.70;100.00;98878.06;5061823;28;20025;-78
2023/01/17 10:13:10;;;;;;;6.07;1.42;;;;;;;0.78;100.00;98877.44;5057811;28;20029;-78
2023/01/17 10:15:39;;;;;;;3.60;1.60;;;;;;;0.84;100.00;98878.75;5057821;28;20080;-78
2023/01/17 10:18:23;;;;;;;2.03;1.10;;;;;;;0.89;100.00;98879.19;5057494;28;20025;-78
2023/01/17 10:21:20;;;;;;;8.30;2.15;;;;;;;0.91;100.00;98881.69;5056944;28;20052;-78
2023/01/17 10:24:27;;;;;;;4.32;1.55;;;;;;;0.93;100.00;98887.63;5052066;28;20037;-79
2023/01/17 10:26:55;;;;;;;2.97;1.60;;;;;;;0.96;100.00;98896.06;5054919;28;20033;-77
2023/01/17 10:29:26;;;;;;;8.02;1.70;;;;;;;1.03;100.00;98894.59;5055678;28;20095;-76
2023/01/17 10:31:58;;;;;;;10.18;1.40;;;;;;;1.13;100.00;98891.22;5056211;28;20021;-76
2023/01/17 10:34:38;;;;;;;3.97;1.52;;;;;;;1.22;100.00;98891.31;5057108;28;20028;-75
2023/01/17 10:37:39;;;;;;;3.08;1.60;;;;;;;1.36;100.00;98891.97;5057458;28;20025;-77
2023/01/17 10:40:19;;;;;;;3.30;1.45;;;;;;;1.46;100.00;98889.38;5055490;28;20433;-77
2023/01/17 10:42:56;;;;;;;8.65;1.30;;;;;;;1.48;100.00;98896.16;5056643;28;20457;-77
2023/01/17 10:45:30;;;;;;;2.85;1.50;;;;;;;1.51;100.00;98888.03;5056162;28;20112;-76
2023/01/17 10:48:26;;;;;;;4.32;1.50;;;;;;;1.62;100.00;98884.50;5056394;28;20033;-76
2023/01/17 10:51:00;;;;;;;8.57;1.65;;;;;;;1.80;100.00;98889.16;5056104;28;20029;-77
2023/01/17 10:53:37;;;;;;;4.00;1.38;;;;;;;1.98;100.00;98890.19;5056637;28;20056;-76
2023/01/17 10:56:03;;;;;;;3.30;1.40;;;;;;;2.16;100.00;98894.84;5056235;28;20036;-76
2023/01/17 10:58:30;;;;;;;3.85;1.40;;;;;;;2.29;100.00;98888.38;5055780;28;20366;-75
2023/01/17 11:01:15;;;;;;;4.78;1.48;;;;;;;2.65;100.00;98882.66;5054977;28;20075;-75
2023/01/17 11:03:43;;;;;;;3.65;1.20;;;;;;;3.02;100.00;98889.06;5055820;28;20029;-76
2023/01/17 11:06:37;;;;;;;2.40;1.40;;;;;;;3.62;100.00;98884.41;5054891;28;20056;-75
2023/01/17 11:09:04;;;;;;;2.00;1.20;;;;;;;4.10;100.00;98884.38;5055503;28;20056;-75
2023/01/17 11:11:32;;;;;;;4.65;1.10;;;;;;;4.23;100.00;98892.78;5054807;28;20481;-75
2023/01/17 11:14:03;;;;;;;4.35;1.00;;;;;;;4.46;89.02;98881.84;5054755;28;20033;-76
2023/01/17 11:16:30;;;;;;;1.65;0.80;;;;;;;4.46;84.70;98890.56;5055771;28;20086;-76
2023/01/17 11:19:24;;;;;;;1.10;0.65;;;;;;;4.39;83.04;98884.25;5053356;28;20028;-75
2023/01/17 11:21:54;;;;;;;3.15;1.00;;;;;;;4.30;89.61;98880.69;5054588;28;20033;-76
2023/01/17 11:24:29;;;;;;;2.25;0.57;;;;;;;4.45;79.13;98888.06;5054057;28;20032;-76
2023/01/17 11:26:55;;;;;;;2.20;1.10;;;;;;;4.35;87.17;98885.50;5055508;28;20033;-75
2023/01/17 11:29:32;;;;;;;2.90;1.08;;;;;;;4.32;83.12;98884.00;5054451;28;20405;-76
2023/01/17 11:32:30;;;;;;;1.77;0.93;;;;;;;4.17;78.88;98878.38;5054425;28;20474;-76
2023/01/17 11:35:19;;;;;;;1.77;1.10;;;;;;;4.00;83.11;98880.00;5054472;28;20501;-76
2023/01/17 11:37:49;;;;;;;3.15;1.20;;;;;;;3.94;91.92;98885.84;5054235;28;20029;-77
2023/01/17 11:40:19;;;;;;;2.20;0.98;;;;;;;4.19;78.03;98883.50;5054131;28;20032;-75
2023/01/17 11:42:45;;;;;;;4.50;1.10;;;;;;;4.51;73.89;98874.31;5054793;28;20055;-77
2023/01/17 11:45:29;;;;;;;1.10;0.82;;;;;;;4.93;75.76;98879.84;5054168;28;20025;-75
2023/01/17 11:48:10;;;;;;;0.95;0.88;;;;;;;5.08;73.31;98881.97;5053270;28;20016;-75
2023/01/17 11:50:52;;;;;;;1.85;1.10;;;;;;;4.95;73.22;98871.78;5055479;28;20049;-75
2023/01/17 11:53:23;;;;;;;1.10;1.02;;;;;;;4.86;73.13;98873.53;5053996;28;20040;-76
2023/01/17 11:56:09;;;;;;;2.03;0.80;;;;;;;5.05;70.89;98869.09;5055343;28;20056;-77
2023/01/17 11:58:41;;;;;;;0.90;0.90;;;;;;;4.85;69.28;98865.78;5053692;28;20033;-76
2023/01/17 12:01:15;;;;;;;2.72;0.80;;;;;;;4.63;67.70;98861.75;5053508;28;20075;-76
2023/01/17 12:03:59;;;;;;;1.35;0.82;;;;;;;4.55;74.93;98862.50;5053971;28;20048;-76
2023/01/17 12:06:48;;;;;;;1.75;0.85;;;;;;;4.64;76.45;98864.25;5053897;28;20124;-74
2023/01/17 12:09:34;;;;;;;2.15;1.00;;;;;;;4.74;79.39;98861.56;5055943;28;20091;-77
2023/01/17 12:15:24;;;;;;;1.30;0.77;;;;;;;4.89;65.53;98862.69;5056140;28;20150;-76
2023/01/17 12:18:16;;;;;;;2.83;0.93;;;;;;;5.15;67.36;98858.44;5057455;28;20033;-77
2023/01/17 12:21:16;;;;;;;1.40;1.10;;;;;;;5.53;66.50;98861.72;5051770;28;20092;-77
2023/01/17 12:23:47;;;;;;;8.18;1.15;;;;;;;5.72;61.98;98856.22;5051743;28;20106;-78
2023/01/17 12:26:18;;;;;;;;;;;;;;;5.79;63.90;98854.59;5056382;28;20052;-78
2023/01/17 12:29:02;;;;;;;1.60;0.98;;;;;;;5.84;64.04;98854.13;5053663;28;20280;-76
2023/01/17 12:31:33;;;;;;;2.13;1.08;;;;;;;6.09;63.47;98849.84;5053107;28;20120;-78
2023/01/17 12:34:14;;;;;;;2.38;0.77;;;;;;;6.76;62.25;98840.25;5052407;28;20123;-76
2023/01/17 12:36:48;;;;;;;2.63;0.85;;;;;;;7.54;56.05;98852.16;5052975;28;20024;-76
2023/01/17 12:39:17;;;;;;;2.33;0.90;;;;;;;8.02;55.05;98842.44;5053364;28;20036;-78
2023/01/17 12:41:53;;;;;;;2.05;0.90;;;;;;;8.52;52.75;98839.56;5053035;28;20496;-77
2023/01/17 12:44:26;;;;;;;2.80;1.00;;;;;;;9.25;51.33;98840.03;5053340;28;20507;-76
2023/01/17 12:47:01;;;;;;;1.70;0.90;;;;;;;9.88;56.01;98833.44;5053161;28;20040;-77
2023/01/17 12:49:46;;;;;;;5.32;1.27;;;;;;;10.43;48.10;98833.13;5052989;28;20064;-77
2023/01/17 12:52:17;;;;;;;2.22;0.88;;;;;;;10.28;47.79;98833.13;5052970;28;20055;-76
2023/01/17 12:54:56;;;;;;;;;;;;;;;10.42;45.83;98839.47;5053860;28;20104;-76
2023/01/17 12:57:26;;;;;;;1.13;1.00;;;;;;;10.67;49.20;98837.25;5052845;28;19955;-77
2023/01/17 12:59:59;;;;;;;1.05;0.90;;;;;;;11.13;44.71;98837.91;5052085;28;20035;-77
2023/01/17 13:02:43;;;;;;;5.35;1.20;;;;;;;11.55;43.88;98838.84;5053318;28;20386;-77
2023/01/17 13:05:22;;;;;;;3.22;1.40;;;;;;;11.54;46.71;98838.03;5052962;28;20075;-77
2023/01/17 13:08:01;;;;;;;1.38;1.00;;;;;;;12.10;44.45;98839.81;5052949;28;20035;-76